createdAt,value
2023-03-29T00:01:06.536Z,98086.00
2023-03-29T00:03:35.081Z,98078.53
2023-03-29T00:06:05.436Z,98064.78
2023-03-29T00:08:35.024Z,98035.59
2023-03-29T00:11:05.430Z,98027.34
2023-03-29T00:13:34.330Z,98017.44
2023-03-29T00:16:02.871Z,98015.81
2023-03-29T00:18:31.367Z,98007.53
2023-03-29T00:21:01.053Z,98007.53
2023-03-29T00:23:29.691Z,98008.66
2023-03-29T00:25:58.328Z,98007.84
2023-03-29T00:28:28.127Z,98008.66
2023-03-29T00:31:06.097Z,98015.81
2023-03-29T00:33:35.249Z,98005.91
2023-03-29T00:36:04.808Z,98003.16
2023-03-29T00:38:33.856Z,97998.47
2023-03-29T00:41:03.792Z,97993.78
2023-03-29T00:43:59.087Z,97991.31
2023-03-29T00:46:29.856Z,97985.81
2023-03-29T00:49:04.506Z,97983.88
2023-03-29T00:51:36.692Z,97994.88
2023-03-29T00:54:08.592Z,97989.06
2023-03-29T00:56:39.706Z,97990.50
2023-03-29T00:59:13.734Z,97982.53
2023-03-29T01:01:50.430Z,97992.13
2023-03-29T01:04:24.926Z,97982.53
2023-03-29T01:06:58.149Z,97988.88
2023-03-29T01:09:30.232Z,97982.53
2023-03-29T01:12:02.742Z,97981.13
2023-03-29T01:14:36.778Z,97973.16
2023-03-29T01:17:06.544Z,97964.91
2023-03-29T01:19:39.981Z,97961.34
2023-03-29T01:22:22.418Z,97955.00
2023-03-29T01:25:06.040Z,97944.81
2023-03-29T01:27:48.670Z,97942.06
2023-03-29T01:30:22.386Z,97938.47
2023-03-29T01:32:56.901Z,97944.00
2023-03-29T01:35:32.483Z,97932.16
2023-03-29T01:38:07.309Z,97922.25
2023-03-29T01:40:36.177Z,97922.25
2023-03-29T01:43:14.496Z,97912.38
2023-03-29T01:45:48.825Z,97901.34
2023-03-29T01:48:25.452Z,97897.47
2023-03-29T01:51:00.064Z,97888.72
2023-03-29T01:53:35.648Z,97878.50
2023-03-29T01:56:08.645Z,97884.84
2023-03-29T01:58:42.743Z,97884.84
2023-03-29T02:01:17.706Z,97886.25
2023-03-29T02:03:50.694Z,97891.47
2023-03-29T02:06:24.662Z,97894.22
2023-03-29T02:08:54.354Z,97899.72
2023-03-29T02:11:24.516Z,97883.09
2023-03-29T02:13:54.421Z,97899.72
2023-03-29T02:16:23.203Z,97887.88
2023-03-29T02:18:54.108Z,97881.56
2023-03-29T02:21:27.671Z,97881.56
2023-03-29T02:23:57.208Z,97874.44
2023-03-29T02:26:26.293Z,97875.25
2023-03-29T02:28:56.387Z,97860.66
2023-03-29T02:31:30.277Z,97856.28
2023-03-29T02:34:03.353Z,97846.06
2023-03-29T02:36:40.416Z,97834.25
2023-03-29T02:39:13.648Z,97834.56
2023-03-29T02:41:45.294Z,97823.25
2023-03-29T02:44:19.437Z,97829.88
2023-03-29T02:46:51.394Z,97821.59
2023-03-29T02:49:20.375Z,97820.47
2023-03-29T02:51:52.589Z,97811.41
2023-03-29T02:54:25.848Z,97813.34
2023-03-29T02:56:58.913Z,97815.28
2023-03-29T02:59:30.867Z,97808.97
2023-03-29T03:01:59.442Z,97803.44
2023-03-29T03:04:29.536Z,97792.44
2023-03-29T03:06:58.079Z,97787.25
2023-03-29T03:09:27.507Z,97790.81
2023-03-29T03:11:56.153Z,97779.78
2023-03-29T03:14:28.222Z,97785.31
2023-03-29T03:16:59.085Z,97779.78
2023-03-29T03:19:27.683Z,97779.78
2023-03-29T03:21:56.895Z,97793.56
2023-03-29T03:24:25.403Z,97798.25
2023-03-29T03:26:54.471Z,97788.38
2023-03-29T03:29:23.242Z,97795.50
2023-03-29T03:32:12.329Z,97794.69
2023-03-29T03:34:59.623Z,97790.00
2023-03-29T03:37:29.568Z,97776.53
2023-03-29T03:39:58.110Z,97765.53
2023-03-29T03:42:28.788Z,97771.03
2023-03-29T03:44:58.084Z,97769.91
2023-03-29T03:47:46.830Z,97773.78
2023-03-29T03:50:31.290Z,97771.03
2023-03-29T03:52:59.886Z,97767.78
2023-03-29T03:55:36.836Z,97765.53
2023-03-29T03:58:12.623Z,97769.41
2023-03-29T04:00:41.774Z,97771.03
2023-03-29T04:03:26.042Z,97770.22
2023-03-29T04:05:54.641Z,97776.53
2023-03-29T04:08:27.212Z,97771.03
2023-03-29T04:11:10.493Z,97763.06
2023-03-29T04:13:42.277Z,97768.59
2023-03-29T04:16:31.477Z,97775.72
2023-03-29T04:19:12.899Z,97779.28
2023-03-29T04:21:42.834Z,97790.59
2023-03-29T04:24:11.321Z,97771.34
2023-03-29T04:26:42.784Z,97782.34
2023-03-29T04:29:18.933Z,97778.78
2023-03-29T04:31:52.052Z,97776.53
2023-03-29T04:34:38.426Z,97779.28
2023-03-29T04:37:10.439Z,97785.91
2023-03-29T04:39:39.278Z,97793.88
2023-03-29T04:42:09.500Z,97794.69
2023-03-29T04:44:38.048Z,97788.88
2023-03-29T04:47:12.978Z,97795.69
2023-03-29T04:49:56.077Z,97794.56
2023-03-29T04:52:40.856Z,97782.44
2023-03-29T04:55:10.337Z,97789.06
2023-03-29T04:57:53.335Z,97782.25
2023-03-29T05:00:27.445Z,97788.56
2023-03-29T05:03:14.877Z,97798.97
2023-03-29T05:06:06.566Z,97789.56
2023-03-29T05:08:38.952Z,97804.47
2023-03-29T05:11:27.605Z,97803.03
2023-03-29T05:14:00.700Z,97808.25
2023-03-29T05:16:30.686Z,97808.75
2023-03-29T05:19:00.224Z,97813.63
2023-03-29T05:21:30.246Z,97808.13
2023-03-29T05:24:02.841Z,97802.00
2023-03-29T05:26:51.785Z,97796.50
2023-03-29T05:29:20.659Z,97787.09
2023-03-29T05:31:55.598Z,97783.22
2023-03-29T05:34:25.069Z,97782.09
2023-03-29T05:36:59.107Z,97783.63
2023-03-29T05:39:31.464Z,97779.44
2023-03-29T05:42:00.933Z,97774.06
2023-03-29T05:44:33.192Z,97775.13
2023-03-29T05:47:11.322Z,97780.56
2023-03-29T05:49:39.867Z,97786.19
2023-03-29T05:52:16.077Z,97769.16
2023-03-29T05:54:44.834Z,97778.38
2023-03-29T05:57:14.016Z,97776.34
2023-03-29T05:59:42.836Z,97767.63
2023-03-29T06:02:12.592Z,97768.66
2023-03-29T06:04:46.759Z,97771.63
2023-03-29T06:07:25.502Z,97773.44
2023-03-29T06:10:23.492Z,97768.41
2023-03-29T06:12:57.602Z,97773.44
2023-03-29T06:15:26.893Z,97772.16
2023-03-29T06:20:30.320Z,97783.88
2023-03-29T06:23:06.179Z,97774.91
2023-03-29T06:25:35.261Z,97778.34
2023-03-29T06:28:03.966Z,97777.38
2023-03-29T06:30:32.866Z,97780.00
2023-03-29T06:33:02.252Z,97782.44
2023-03-29T06:35:49.406Z,97785.53
2023-03-29T06:38:23.304Z,97784.53
2023-03-29T06:41:05.208Z,97788.44
2023-03-29T06:43:54.965Z,97797.25
2023-03-29T06:46:27.056Z,97772.84
2023-03-29T06:48:58.077Z,97788.28
2023-03-29T06:51:34.636Z,97793.50
2023-03-29T06:54:05.350Z,97792.84
2023-03-29T06:56:34.201Z,97795.28
2023-03-29T06:59:09.252Z,97795.28
2023-03-29T07:01:49.187Z,97803.72
2023-03-29T07:04:27.678Z,97795.59
2023-03-29T07:07:24.219Z,97806.50
2023-03-29T07:10:10.448Z,97810.88
2023-03-29T07:12:57.474Z,97817.41
2023-03-29T07:15:27.564Z,97807.94
2023-03-29T07:18:22.149Z,97802.56
2023-03-29T07:20:52.139Z,97802.72
2023-03-29T07:23:21.348Z,97811.69
2023-03-29T07:25:54.066Z,97802.69
2023-03-29T07:28:22.747Z,97809.38
2023-03-29T07:30:54.954Z,97815.09
2023-03-29T07:33:24.284Z,97817.38
2023-03-29T07:36:06.937Z,97819.66
2023-03-29T07:38:36.800Z,97814.78
2023-03-29T07:41:12.886Z,97815.44
2023-03-29T07:44:04.850Z,97820.97
2023-03-29T07:46:33.409Z,97821.78
2023-03-29T07:49:01.933Z,97820.97
2023-03-29T07:51:31.054Z,97820.16
2023-03-29T07:54:06.298Z,97826.00
2023-03-29T07:56:54.679Z,97829.28
2023-03-29T07:59:30.944Z,97824.88
2023-03-29T08:02:16.465Z,97828.78
2023-03-29T08:04:50.687Z,97837.25
2023-03-29T08:07:21.037Z,97835.78
2023-03-29T08:10:10.695Z,97839.22
2023-03-29T08:13:16.248Z,97841.97
2023-03-29T08:16:11.220Z,97834.97
2023-03-29T08:18:45.863Z,97833.03
2023-03-29T08:21:15.866Z,97840.19
2023-03-29T08:23:48.472Z,97839.53
2023-03-29T08:26:27.730Z,97838.88
2023-03-29T08:28:59.533Z,97847.66
2023-03-29T08:31:29.382Z,97837.41
2023-03-29T08:33:58.037Z,97831.88
2023-03-29T08:36:55.707Z,97836.25
2023-03-29T08:39:35.001Z,97839.03
2023-03-29T08:42:35.403Z,97839.03
2023-03-29T08:45:14.638Z,97828.28
2023-03-29T08:47:53.634Z,97831.06
2023-03-29T08:50:33.710Z,97838.38
2023-03-29T08:53:07.742Z,97840.66
2023-03-29T08:55:58.383Z,97839.53
2023-03-29T08:58:52.639Z,97841.47
2023-03-29T09:01:24.418Z,97837.91
2023-03-29T09:04:05.740Z,97828.78
2023-03-29T09:06:55.041Z,97826.84
2023-03-29T09:09:32.762Z,97829.13
2023-03-29T09:12:20.053Z,97818.69
2023-03-29T09:15:00.808Z,97817.72
2023-03-29T09:17:40.193Z,97823.59
2023-03-29T09:20:24.442Z,97827.34
2023-03-29T09:23:03.294Z,97824.41
2023-03-29T09:25:54.074Z,97818.72
2023-03-29T09:28:36.988Z,97817.09
2023-03-29T09:31:07.833Z,97819.03
2023-03-29T09:33:42.946Z,97813.00
2023-03-29T09:36:23.988Z,97812.19
2023-03-29T09:38:55.558Z,97815.78
2023-03-29T09:41:31.584Z,97810.25
2023-03-29T09:44:12.709Z,97811.38
2023-03-29T09:46:54.211Z,97807.28
2023-03-29T09:49:31.104Z,97804.03
2023-03-29T09:52:05.787Z,97809.09
2023-03-29T09:54:34.498Z,97802.25
2023-03-29T09:57:21.589Z,97799.31
2023-03-29T09:59:52.500Z,97800.28
2023-03-29T10:02:22.135Z,97804.03
2023-03-29T10:04:58.703Z,97803.06
2023-03-29T10:07:36.001Z,97792.63
2023-03-29T10:10:10.444Z,97789.22
2023-03-29T10:12:42.593Z,97784.19
2023-03-29T10:15:26.818Z,97792.63
2023-03-29T10:18:00.674Z,97792.28
2023-03-29T10:20:30.989Z,97788.22
2023-03-29T10:23:00.711Z,97785.28
2023-03-29T10:25:31.703Z,97795.84
2023-03-29T10:28:06.953Z,97788.84
2023-03-29T10:30:38.532Z,97793.88
2023-03-29T10:33:16.107Z,97787.38
2023-03-29T10:35:48.879Z,97797.44
2023-03-29T10:38:19.715Z,97786.50
2023-03-29T10:40:50.300Z,97788.28
2023-03-29T10:43:23.392Z,97783.38
2023-03-29T10:45:53.746Z,97784.03
2023-03-29T10:48:26.485Z,97780.91
2023-03-29T10:50:59.847Z,97788.38
2023-03-29T10:53:32.409Z,97792.59
2023-03-29T10:56:25.491Z,97788.84
2023-03-29T10:59:18.295Z,97789.50
2023-03-29T11:01:53.743Z,97797.28
2023-03-29T11:04:29.449Z,97780.53
2023-03-29T11:07:19.672Z,97781.97
2023-03-29T11:09:56.139Z,97785.06
2023-03-29T11:12:32.345Z,97791.72
2023-03-29T11:15:19.525Z,97786.50
2023-03-29T11:18:03.346Z,97793.16
2023-03-29T11:20:41.816Z,97776.09
2023-03-29T11:23:25.439Z,97772.84
2023-03-29T11:26:03.981Z,97766.84
2023-03-29T11:28:42.270Z,97767.97
2023-03-29T11:31:20.194Z,97769.41
2023-03-29T11:33:57.555Z,97763.59
2023-03-29T11:36:32.891Z,97763.25
2023-03-29T11:39:13.186Z,97760.19
2023-03-29T11:41:45.188Z,97756.28
2023-03-29T11:44:18.783Z,97746.88
2023-03-29T11:46:53.148Z,97754.03
2023-03-29T11:49:27.736Z,97746.56
2023-03-29T11:52:03.134Z,97744.63
2023-03-29T11:54:39.526Z,97737.47
2023-03-29T11:57:15.461Z,97735.84
2023-03-29T11:59:55.365Z,97727.56
2023-03-29T12:02:29.490Z,97739.41
2023-03-29T12:05:03.343Z,97732.59
2023-03-29T12:07:36.753Z,97735.66
2023-03-29T12:10:15.540Z,97737.94
2023-03-29T12:12:56.151Z,97730.28
2023-03-29T12:15:26.896Z,97735.31
2023-03-29T12:18:06.977Z,97732.06
2023-03-29T12:20:39.702Z,97717.25
2023-03-29T12:23:15.722Z,97714.34
2023-03-29T12:25:54.170Z,97711.88
2023-03-29T12:28:34.439Z,97695.78
2023-03-29T12:31:12.910Z,97704.06
2023-03-29T12:34:07.056Z,97705.53
2023-03-29T12:37:07.505Z,97693.16
2023-03-29T12:39:48.810Z,97693.78
2023-03-29T12:42:46.153Z,97705.94
2023-03-29T12:45:35.623Z,97692.78
2023-03-29T12:48:05.053Z,97693.41
2023-03-29T12:50:35.984Z,97691.78
2023-03-29T12:53:07.436Z,97688.22
2023-03-29T12:55:49.494Z,97688.53
2023-03-29T12:58:42.914Z,97690.81
2023-03-29T13:01:24.037Z,97686.41
2023-03-29T13:03:58.291Z,97696.94
2023-03-29T13:06:32.654Z,97692.56
2023-03-29T13:09:03.612Z,97688.19
2023-03-29T13:11:39.922Z,97679.09
2023-03-29T13:14:15.610Z,97682.47
2023-03-29T13:16:44.243Z,97679.22
2023-03-29T13:19:30.506Z,97690.25
2023-03-29T13:22:10.647Z,97685.56
2023-03-29T13:24:50.386Z,97685.56
2023-03-29T13:27:30.308Z,97694.97
2023-03-29T13:30:16.646Z,97711.50
2023-03-29T13:32:52.503Z,97718.97
2023-03-29T13:35:31.963Z,97726.41
2023-03-29T13:38:11.039Z,97718.16
2023-03-29T13:40:46.891Z,97724.78
2023-03-29T13:43:30.940Z,97715.69
2023-03-29T13:46:21.071Z,97711.31
2023-03-29T13:49:04.783Z,97719.28
2023-03-29T13:51:37.999Z,97722.03
2023-03-29T13:54:23.059Z,97719.28
2023-03-29T13:57:01.384Z,97715.19
2023-03-29T13:59:36.426Z,97710.50
2023-03-29T14:02:07.419Z,97711.63
2023-03-29T14:04:42.132Z,97716.03
2023-03-29T14:07:15.436Z,97710.50
2023-03-29T14:09:46.481Z,97703.84
2023-03-29T14:12:15.981Z,97694.47
2023-03-29T14:14:58.407Z,97692.84
2023-03-29T14:17:29.554Z,97702.72
2023-03-29T14:19:59.449Z,97710.50
2023-03-29T14:22:33.762Z,97713.38
2023-03-29T14:25:06.352Z,97711.75
2023-03-29T14:27:37.748Z,97715.34
2023-03-29T14:30:21.545Z,97702.38
2023-03-29T14:32:52.433Z,97704.81
2023-03-29T14:35:30.149Z,97694.59
2023-03-29T14:37:59.972Z,97703.38
2023-03-29T14:40:28.596Z,97703.38
2023-03-29T14:42:57.170Z,97704.19
2023-03-29T14:45:26.276Z,97702.22
2023-03-29T14:47:56.378Z,97706.63
2023-03-29T14:50:28.400Z,97695.59
2023-03-29T14:52:58.586Z,97683.44
2023-03-29T14:55:27.460Z,97693.31
2023-03-29T14:57:56.940Z,97680.69
2023-03-29T15:00:30.109Z,97698.84
2023-03-29T15:03:02.563Z,97683.13
2023-03-29T15:05:38.552Z,97685.06
2023-03-29T15:08:11.594Z,97682.31
2023-03-29T15:10:42.977Z,97674.34
2023-03-29T15:13:19.755Z,97667.19
2023-03-29T15:15:52.433Z,97668.03
2023-03-29T15:18:28.216Z,97666.88
2023-03-29T15:20:56.873Z,97666.88
2023-03-29T15:23:26.504Z,97664.13
2023-03-29T15:25:58.326Z,97660.25
2023-03-29T15:28:30.974Z,97653.09
2023-03-29T15:31:07.643Z,97648.72
2023-03-29T15:33:40.394Z,97642.88
2023-03-29T15:36:11.031Z,97647.59
2023-03-29T15:38:44.570Z,97633.81
2023-03-29T15:41:14.560Z,97625.53
2023-03-29T15:43:43.926Z,97625.53
2023-03-29T15:46:14.112Z,97623.91
2023-03-29T15:48:44.238Z,97611.25
2023-03-29T15:51:13.454Z,97615.63
2023-03-29T15:53:42.760Z,97612.06
2023-03-29T15:56:17.155Z,97621.16
2023-03-29T15:58:46.491Z,97614.81
2023-03-29T16:01:34.259Z,97614.00
2023-03-29T16:04:05.430Z,97609.00
2023-03-29T16:06:36.062Z,97610.63
2023-03-29T16:09:06.173Z,97602.34
2023-03-29T16:11:35.299Z,97605.09
2023-03-29T16:14:03.984Z,97609.00
2023-03-29T16:16:32.646Z,97602.97
2023-03-29T16:19:01.110Z,97596.34
2023-03-29T16:21:30.958Z,97597.16
2023-03-29T16:23:59.453Z,97594.72
2023-03-29T16:26:28.026Z,97594.22
2023-03-29T16:28:56.430Z,97605.72
2023-03-29T16:31:26.927Z,97603.28
2023-03-29T16:33:55.762Z,97601.03
2023-03-29T16:36:24.240Z,97604.09
2023-03-29T16:38:54.427Z,97598.59
2023-03-29T16:41:23.079Z,97605.72
2023-03-29T16:43:51.573Z,97601.84
2023-03-29T16:46:20.861Z,97593.09
2023-03-29T16:48:51.361Z,97593.09
2023-03-29T16:51:20.054Z,97593.91
2023-03-29T16:53:49.112Z,97593.09
2023-03-29T16:56:19.819Z,97593.91
2023-03-29T16:58:48.293Z,97588.38
2023-03-29T17:01:17.734Z,97586.75
2023-03-29T17:03:46.177Z,97585.94
2023-03-29T17:06:14.785Z,97580.44
2023-03-29T17:08:43.394Z,97583.19
2023-03-29T17:11:13.047Z,97585.94
2023-03-29T17:13:43.421Z,97587.56
2023-03-29T17:16:11.937Z,97574.91
2023-03-29T17:18:40.366Z,97574.91
2023-03-29T17:21:09.177Z,97574.59
2023-03-29T17:23:37.642Z,97571.84
2023-03-29T17:26:07.000Z,97567.13
2023-03-29T17:28:36.093Z,97568.75
2023-03-29T17:31:08.126Z,97568.75
2023-03-29T17:33:36.875Z,97579.78
2023-03-29T17:36:07.317Z,97579.28
2023-03-29T17:38:37.917Z,97587.56
2023-03-29T17:41:06.996Z,97577.19
2023-03-29T17:43:35.599Z,97579.44
2023-03-29T17:46:04.532Z,97589.66
2023-03-29T17:48:34.928Z,97591.59
2023-03-29T17:51:03.432Z,97600.53
2023-03-29T17:53:31.979Z,97618.66
2023-03-29T17:56:00.859Z,97611.56
2023-03-29T17:58:29.473Z,97607.16
2023-03-29T18:00:58.006Z,97605.53
2023-03-29T18:03:27.079Z,97591.75
2023-03-29T18:05:57.294Z,97581.88
2023-03-29T18:08:25.862Z,97580.25
2023-03-29T18:10:54.308Z,97586.88
2023-03-29T18:13:25.338Z,97567.91
2023-03-29T18:15:56.428Z,97574.22
2023-03-29T18:18:24.982Z,97568.72
2023-03-29T18:20:53.573Z,97572.59
2023-03-29T18:23:23.375Z,97579.25
2023-03-29T18:25:52.117Z,97582.81
2023-03-29T18:28:20.610Z,97570.66
2023-03-29T18:30:51.558Z,97571.97
2023-03-29T18:33:20.066Z,97576.34
2023-03-29T18:35:50.509Z,97572.47
2023-03-29T18:38:20.895Z,97572.47
2023-03-29T18:40:51.509Z,97566.63
2023-03-29T18:43:20.045Z,97561.94
2023-03-29T18:45:48.761Z,97566.28
2023-03-29T18:48:17.297Z,97565.47
2023-03-29T18:50:46.428Z,97564.34
2023-03-29T18:53:15.498Z,97567.91
2023-03-29T18:55:44.525Z,97567.91
2023-03-29T18:58:15.959Z,97564.34
2023-03-29T19:00:44.729Z,97563.22
2023-03-29T19:03:13.536Z,97566.78
2023-03-29T19:05:42.345Z,97554.13
2023-03-29T19:08:11.139Z,97555.75
2023-03-29T19:10:40.477Z,97550.25
2023-03-29T19:13:08.988Z,97550.25
2023-03-29T19:15:40.441Z,97559.66
2023-03-29T19:18:09.089Z,97555.75
2023-03-29T19:20:38.362Z,97562.09
2023-03-29T19:23:06.825Z,97551.88
2023-03-29T19:25:35.355Z,97545.53
2023-03-29T19:28:04.930Z,97553.00
2023-03-29T19:30:36.472Z,97544.72
2023-03-29T19:33:06.311Z,97538.41
2023-03-29T19:35:35.097Z,97540.03
2023-03-29T19:38:03.755Z,97549.13
2023-03-29T19:40:32.267Z,97549.13
2023-03-29T19:43:00.822Z,97538.09
2023-03-29T19:45:29.460Z,97535.31
2023-03-29T19:48:02.942Z,97531.44
2023-03-29T19:50:33.481Z,97535.31
2023-03-29T19:53:01.880Z,97532.56
2023-03-29T19:55:30.366Z,97532.09
2023-03-29T19:57:58.950Z,97522.53
2023-03-29T20:00:27.550Z,97523.97
2023-03-29T20:02:56.533Z,97525.13
2023-03-29T20:05:25.069Z,97524.63
2023-03-29T20:07:55.374Z,97526.56
2023-03-29T20:10:23.902Z,97519.75
2023-03-29T20:12:52.407Z,97507.09
2023-03-29T20:15:20.850Z,97501.91
2023-03-29T20:17:51.308Z,97496.72
2023-03-29T20:20:21.196Z,97497.84
2023-03-29T20:22:49.693Z,97480.81
2023-03-29T20:25:19.604Z,97487.47
2023-03-29T20:27:49.334Z,97495.22
2023-03-29T20:30:18.274Z,97484.22
2023-03-29T20:32:47.180Z,97474.31
2023-03-29T20:35:16.462Z,97478.19
2023-03-29T20:37:44.973Z,97479.34
2023-03-29T20:40:15.517Z,97478.53
2023-03-29T20:42:46.263Z,97470.25
2023-03-29T20:45:19.271Z,97467.81
2023-03-29T20:47:57.405Z,97462.31
2023-03-29T20:50:29.620Z,97470.25
2023-03-29T20:53:03.743Z,97468.63
2023-03-29T20:55:33.063Z,97457.94
2023-03-29T20:58:03.506Z,97454.03
2023-03-29T21:00:35.367Z,97459.06
2023-03-29T21:03:04.524Z,97457.44
2023-03-29T21:05:34.122Z,97446.41
2023-03-29T21:08:04.220Z,97444.78
2023-03-29T21:10:32.902Z,97448.34
2023-03-29T21:13:03.068Z,97445.59
2023-03-29T21:15:31.909Z,97451.91
2023-03-29T21:18:00.592Z,97445.59
2023-03-29T21:20:29.166Z,97435.72
2023-03-29T21:22:57.815Z,97433.78
2023-03-29T21:25:26.281Z,97421.13
2023-03-29T21:27:54.714Z,97427.44
2023-03-29T21:30:24.506Z,97425.00
2023-03-29T21:32:52.940Z,97423.06
2023-03-29T21:35:21.466Z,97423.38
2023-03-29T21:37:49.889Z,97421.75
2023-03-29T21:40:18.345Z,97420.63
2023-03-29T21:42:46.767Z,97421.75
2023-03-29T21:45:15.467Z,97412.38
2023-03-29T21:47:45.366Z,97408.81
2023-03-29T21:50:14.110Z,97404.41
2023-03-29T21:52:42.533Z,97408.00
2023-03-29T21:55:10.986Z,97398.09
2023-03-29T21:57:39.418Z,97399.22
2023-03-29T22:00:12.611Z,97395.34
2023-03-29T22:02:42.302Z,97390.16
2023-03-29T22:05:12.749Z,97390.97
2023-03-29T22:07:41.100Z,97383.84
2023-03-29T22:10:12.267Z,97374.75
2023-03-29T22:12:41.354Z,97372.81
2023-03-29T22:15:12.343Z,97373.94
2023-03-29T22:17:41.359Z,97375.88
2023-03-29T22:20:13.780Z,97384.97
2023-03-29T22:22:46.196Z,97382.22
2023-03-29T22:25:14.755Z,97386.09
2023-03-29T22:27:43.873Z,97380.59
2023-03-29T22:30:13.634Z,97386.09
2023-03-29T22:32:42.355Z,97376.22
2023-03-29T22:35:12.469Z,97373.44
2023-03-29T22:37:42.563Z,97375.41
2023-03-29T22:40:13.107Z,97377.34
2023-03-29T22:42:41.574Z,97375.41
2023-03-29T22:45:11.043Z,97383.66
2023-03-29T22:47:39.475Z,97380.41
2023-03-29T22:50:08.945Z,97377.66
2023-03-29T22:52:38.790Z,97382.03
2023-03-29T22:55:08.436Z,97375.72
2023-03-29T22:57:36.810Z,97372.97
2023-03-29T23:00:09.036Z,97372.16
2023-03-29T23:02:38.190Z,97379.59
2023-03-29T23:05:07.624Z,97382.34
2023-03-29T23:07:36.940Z,97370.50
2023-03-29T23:10:08.353Z,97370.50
2023-03-29T23:12:37.120Z,97374.09
2023-03-29T23:15:08.049Z,97360.59
2023-03-29T23:17:37.074Z,97370.81
2023-03-29T23:20:06.884Z,97368.88
2023-03-29T23:22:36.312Z,97371.63
2023-03-29T23:25:05.464Z,97368.06
2023-03-29T23:27:35.496Z,97370.81
2023-03-29T23:30:04.111Z,97363.69
2023-03-29T23:32:32.649Z,97371.63
2023-03-29T23:35:01.301Z,97370.81
2023-03-29T23:37:29.804Z,97367.56
2023-03-29T23:39:58.326Z,97366.44
2023-03-29T23:42:26.764Z,97368.06
2023-03-29T23:44:56.563Z,97371.94
2023-03-29T23:47:26.991Z,97365.94
2023-03-29T23:49:55.773Z,97369.19
2023-03-29T23:52:24.141Z,97373.09
2023-03-29T23:54:52.527Z,97373.09
2023-03-29T23:57:21.342Z,97370.66
2023-03-29T23:59:52.660Z,97365.13
